Brookfield, Connecticut
Current Conditions -  °F | °C
As of 8:53 PM on Sunday 25 Jan 2015 (Local Time) from KDXR Reporting Station
Clear Clear  
Wind Chill: -9°   Ceiling: Unl
Heat Index: -4°   Visibility: 10mi
Dew Point: -16°   Wind: 7mph
Humidity: 42%   Direction: 50°NE
Pressure: 29.97"   Gusts: NA
Location:  41.48°N, 73.41°W
Report Text: KDXR 260153Z 05006KT 10SM CLR M04/M16 A2997 RMK AO2 SLP154 T10441156
Loading
Personal Weather Stations






























Interactive Weather Map New forecast layout! Learn more

10-Day Weather Forecast

Advertisements
Track Severe Weather on mobile